Data for 04/08/2017

Time Sea-Level Adjusted Pressure Absolute Pressure Temperature Relative Humidity Dew Point   
(mb) (inHg) (mb) (inHg) (C) (F) (%) (C) (F)
00:05 1010 29.83 839 24.78 5.3 41.5 75 1.3 34.3
00:10 1010 29.83 839 24.78 5.1 41.2 78 1.5 34.8
00:15 1010 29.83 839 24.78 5 41.1 77 1.4 34.5
00:20 1009 29.8 839 24.78 5 41 77 1.4 34.4
00:25 1009 29.8 839 24.78 5 41 78 1.5 34.6
00:30 1009 29.8 838 24.75 4.9 40.9 77 1.3 34.3
00:35 1009 29.8 838 24.75 5 40.9 76 1.1 33.9
00:40 1009 29.8 838 24.75 5 41 75 0.9 33.6
00:45 1009 29.8 838 24.75 4.9 40.8 75 0.8 33.4
00:50 1009 29.8 838 24.75 4.8 40.7 76 1 33.8
00:55 1009 29.8 838 24.75 4.8 40.6 76 0.8 33.5
01:00 1009 29.8 839 24.78 4.7 40.4 77 1.1 33.9
01:05 1009 29.8 838 24.75 4.6 40.2 76 0.6 33.2
01:10 1009 29.8 838 24.75 4.6 40.3 78 1.1 33.9
01:15 1009 29.8 838 24.75 4.5 40.1 80 1.2 34.2
01:20 1009 29.8 838 24.75 4.4 39.9 80 1.3 34.3
01:25 1009 29.8 839 24.78 4.3 39.8 80 1.1 34.1
01:30 1009 29.8 839 24.78 4.3 39.8 79 1 33.8
01:35 1009 29.8 839 24.78 4.4 40 76 0.6 33.1
01:40 1009 29.8 838 24.75 4.7 40.4 73 0.2 32.4
01:45 1009 29.8 838 24.75 4.8 40.7 73 0.4 32.7
01:50 1009 29.8 838 24.75 4.9 40.8 72 0.2 32.4
01:55 1009 29.8 838 24.75 4.9 40.8 73 0.5 32.9
02:00 1008 29.77 838 24.75 4.7 40.5 74 0.4 32.7
02:05 1009 29.8 838 24.75 4.8 40.6 73 0.3 32.5
02:10 1009 29.8 838 24.75 4.8 40.6 72 0.2 32.4
02:15 1009 29.8 838 24.75 4.8 40.7 72 0.2 32.4
02:20 1009 29.8 838 24.75 4.7 40.5 74 0.5 32.9
02:25 1009 29.8 838 24.75 4.5 40.2 76 0.6 33.1
02:30 1009 29.8 838 24.75 4.4 39.9 77 0.6 33.1
02:35 1009 29.8 838 24.75 4.3 39.8 76 0.5 32.9
02:40 1009 29.8 838 24.75 4.3 39.8 76 0.4 32.8
02:45 1009 29.8 838 24.75 4.4 39.9 75 0.4 32.6
02:50 1009 29.8 838 24.75 4.5 40 74 0.2 32.4
02:55 1009 29.8 838 24.75 4.5 40.1 74 0.3 32.5
03:00 1009 29.8 838 24.75 4.6 40.3 70 -0.4 31.3
03:05 1009 29.8 838 24.75 4.8 40.6 72 0.1 32.3
03:10 1009 29.8 838 24.75 4.6 40.3 73 0.1 32.3
03:15 1009 29.8 838 24.75 4.5 40.2 73 0.1 32.3
03:20 1009 29.8 838 24.75 4.5 40.2 74 0.3 32.5
03:25 1009 29.8 838 24.75 4.4 40 73 0.1 32.2
03:30 1008 29.77 838 24.75 4.6 40.2 70 -0.4 31.3
03:35 1008 29.77 837 24.72 4.6 40.4 71 -0.1 31.8
03:40 1008 29.77 837 24.72 4.6 40.3 72 0 32
03:45 1008 29.77 837 24.72 4.4 39.9 74 0.2 32.3
03:50 1008 29.77 837 24.72 4.2 39.6 75 0.2 32.4
03:55 1008 29.77 838 24.75 4.1 39.4 76 0.2 32.4
04:00 1008 29.77 837 24.72 4 39.3 76 0.3 32.5
04:05 1008 29.77 837 24.72 4 39.1 77 0.3 32.5
04:10 1008 29.77 837 24.72 3.9 39.1 77 0.2 32.4
04:15 1008 29.77 837 24.72 3.9 39.1 77 0.3 32.5
04:20 1008 29.77 838 24.75 3.9 38.9 78 0.4 32.7
04:25 1008 29.77 838 24.75 3.8 38.8 78 0.2 32.4
04:30 1008 29.77 838 24.75 3.8 38.8 77 0.2 32.4
04:35 1008 29.77 838 24.75 3.8 38.9 78 0.3 32.5
04:40 1008 29.77 838 24.75 3.8 38.9 77 0.2 32.4
04:45 1008 29.77 838 24.75 4 39.3 75 0.1 32.2
04:50 1008 29.77 838 24.75 4.1 39.3 75 0.1 32.1
04:55 1008 29.77 838 24.75 4.1 39.3 75 0.1 32.2
05:00 1008 29.77 838 24.75 4.1 39.3 75 0.1 32.1
05:05 1009 29.8 838 24.75 4 39.2 76 0.1 32.2
05:10 1009 29.8 838 24.75 4 39.1 76 0.2 32.3
05:15 1008 29.77 838 24.75 3.9 39 75 -0.1 31.9
05:20 1008 29.77 838 24.75 4.1 39.3 75 0 32.1
05:25 1008 29.77 837 24.72 4 39.2 77 0.3 32.6
05:30 1008 29.77 837 24.72 3.9 38.9 77 0.2 32.3
05:35 1008 29.77 837 24.72 3.9 38.9 77 0.3 32.5
05:40 1008 29.77 837 24.72 3.8 38.8 77 0.1 32.2
05:45 1008 29.77 837 24.72 3.8 38.8 78 0.2 32.4
05:50 1008 29.77 837 24.72 3.7 38.7 78 0.3 32.5
05:55 1008 29.77 837 24.72 3.7 38.7 79 0.4 32.8
06:00 1008 29.77 837 24.72 3.5 38.4 80 0.4 32.7
06:05 1008 29.77 837 24.72 3.4 38.2 80 0.3 32.6
06:10 1008 29.77 837 24.72 3.4 38.1 80 0.2 32.4
06:15 1008 29.77 837 24.72 3.4 38.1 80 0.2 32.4
06:20 1008 29.77 837 24.72 3.3 38 80 0.1 32.3
06:25 1008 29.77 837 24.72 3.3 38 80 0.2 32.3
06:30 1008 29.77 837 24.72 3.3 38 80 0.2 32.3
06:35 1008 29.77 837 24.72 3.4 38.2 77 -0.2 31.7
06:40 1008 29.77 837 24.72 3.6 38.5 75 -0.4 31.3
06:45 1008 29.77 837 24.72 3.6 38.5 76 -0.2 31.6
06:50 1008 29.77 837 24.72 3.5 38.3 76 -0.3 31.5
06:55 1008 29.77 837 24.72 3.5 38.2 77 -0.3 31.5
07:00 1008 29.77 837 24.72 3.4 38.1 78 -0.1 31.8
07:05 1008 29.77 837 24.72 3.3 37.9 78 -0.1 31.8
07:10 1008 29.77 837 24.72 3.2 37.7 79 -0.2 31.7
07:15 1008 29.77 837 24.72 3.2 37.7 78 -0.4 31.3
07:20 1008 29.77 837 24.72 3.2 37.8 79 -0.1 31.8
07:25 1008 29.77 837 24.72 3.2 37.8 80 0 32
07:30 1008 29.77 837 24.72 3.3 37.9 79 -0.1 31.8
07:35 1008 29.77 837 24.72 3.3 38 79 0 32
07:40 1008 29.77 837 24.72 3.3 38 79 0.1 32.1
07:45 1008 29.77 837 24.72 3.4 38.1 78 -0.1 31.9
07:50 1008 29.77 837 24.72 3.5 38.2 77 -0.1 31.8
07:55 1008 29.77 837 24.72 3.4 38.1 79 0 32.1
08:00 1008 29.77 837 24.72 3.2 37.8 80 0.1 32.1
08:05 1008 29.77 837 24.72 3.2 37.8 79 -0 32
08:10 1008 29.77 837 24.72 3.3 38 78 -0.1 31.8
08:15 1008 29.77 837 24.72 3.5 38.2 77 -0.2 31.7
08:20 1008 29.77 837 24.72 3.5 38.3 77 -0.2 31.7
08:25 1008 29.77 837 24.72 3.5 38.2 76 -0.4 31.4
08:30 1008 29.77 837 24.72 3.6 38.5 75 -0.4 31.3
08:35 1008 29.77 837 24.72 3.7 38.6 76 -0.2 31.7
08:40 1008 29.77 837 24.72 3.8 38.9 75 -0.2 31.6
08:45 1008 29.77 837 24.72 4 39.1 74 -0.2 31.7
08:50 1008 29.77 837 24.72 4.1 39.4 74 -0.1 31.9
08:55 1008 29.77 837 24.72 4.3 39.8 73 -0.1 31.9
09:00 1008 29.77 837 24.72 4.4 40 74 0.2 32.4
09:05 1008 29.77 837 24.72 4.5 40.2 73 0.1 32.2
09:10 1008 29.77 837 24.72 4.6 40.3 73 0.2 32.3
09:15 1008 29.77 837 24.72 4.9 40.8 72 0.2 32.4
09:20 1008 29.77 837 24.72 4.8 40.7 71 0.1 32.2
09:25 1008 29.77 837 24.72 4.9 40.8 72 0.2 32.4
09:30 1008 29.77 837 24.72 5 41.1 72 0.3 32.6
09:35 1008 29.77 837 24.72 5.8 42.4 66 -0 31.9
09:40 1008 29.77 837 24.72 5.8 42.4 66 0 32.1
09:45 1008 29.77 837 24.72 6.3 43.3 62 -0.4 31.2
09:50 1008 29.77 837 24.72 6.8 44.3 60 -0.3 31.5
09:55 1008 29.77 837 24.72 7.4 45.3 54 -1.4 29.5
10:00 1008 29.77 837 24.72 8 46.5 55 -0.4 31.3
10:05 1008 29.77 837 24.72 8.8 47.8 51 -0.9 30.4
10:10 1008 29.77 837 24.72 8.6 47.4 52 -0.7 30.7
10:15 1008 29.77 837 24.72 8.7 47.6 51 -1 30.2
10:20 1008 29.77 837 24.72 9.1 48.4 50 -0.6 31
10:25 1008 29.77 837 24.72 8.9 48 51 -0.7 30.7
10:30 1008 29.77 837 24.72 9 48.2 48 -1.3 29.6
10:35 1008 29.77 837 24.72 9.3 48.7 48 -1.2 29.8
10:40 1008 29.77 837 24.72 9.4 48.9 47 -1.3 29.6
10:45 1008 29.77 837 24.72 10.5 50.9 43 -1.4 29.4
10:50 1008 29.77 837 24.72 10.9 51.7 43 -1 30.2
10:55 1007 29.74 837 24.72 11 51.8 44 -0.8 30.6
11:00 1007 29.74 837 24.72 11 51.8 41 -1.7 28.9
11:05 1007 29.74 837 24.72 11.6 52.9 41 -1.2 29.9
11:10 1007 29.74 837 24.72 11.8 53.2 37 -2.2 28
11:15 1007 29.74 837 24.72 10.8 51.5 40 -2.1 28.2
11:20 1007 29.74 836 24.69 10.9 51.7 39 -2.6 27.4
11:25 1007 29.74 836 24.69 11.9 53.4 36 -2.8 27
11:30 1007 29.74 836 24.69 12.2 53.9 39 -1.4 29.5
11:35 1007 29.74 836 24.69 12.3 54.2 39 -1.1 30.1
11:40 1007 29.74 836 24.69 12.8 55 35 -2.2 28.1
11:45 1007 29.74 836 24.69 13 55.4 33 -2.7 27.1
11:50 1007 29.74 836 24.69 12.5 54.5 35 -2.6 27.4
11:55 1007 29.74 836 24.69 12.7 54.8 33 -3 26.7
12:00 1007 29.74 836 24.69 13.7 56.6 32 -2.6 27.4
12:05 1007 29.74 836 24.69 14.2 57.6 31 -2.7 27.1
12:10 1007 29.74 836 24.69 14 57.2 32 -2.4 27.6
12:15 1007 29.74 836 24.69 13 55.4 33 -2.8 27
12:20 1007 29.74 836 24.69 12.2 54 34 -2.9 26.7
12:25 1007 29.74 836 24.69 11.8 53.2 34 -3.4 25.9
12:30 1007 29.74 836 24.69 11.8 53.3 36 -2.9 26.8
12:35 1007 29.74 836 24.69 11.6 53 36 -2.9 26.7
12:40 1006 29.71 836 24.69 11.5 52.7 35 -3.5 25.7
12:45 1006 29.71 836 24.69 12.3 54.1 33 -3.6 25.5
12:50 1006 29.71 835 24.66 12.7 54.9 32 -3.5 25.7
12:55 1006 29.71 835 24.66 11.8 53.3 33 -3.8 25.1
13:00 1006 29.71 835 24.66 12.1 53.9 32 -4.1 24.7
13:05 1006 29.71 835 24.66 13 55.4 31 -3.7 25.4
13:10 1006 29.71 835 24.66 14.1 57.3 29 -3.4 25.8
13:15 1006 29.71 835 24.66 13.4 56.2 28 -4.9 23.2
13:20 1006 29.71 835 24.66 12.7 54.8 26 -6.4 20.5
13:25 1006 29.71 835 24.66 12.2 53.9 27 -6.2 20.8
13:30 1006 29.71 835 24.66 12.3 54.1 28 -5.8 21.5
13:35 1006 29.71 835 24.66 12.1 53.7 28 -5.9 21.3
13:40 1005 29.68 835 24.66 12.1 53.7 30 -4.8 23.3
13:45 1005 29.68 835 24.66 11.7 53.1 31 -4.9 23.2
13:50 1005 29.68 835 24.66 12.1 53.7 30 -4.9 23.3
13:55 1005 29.68 835 24.66 12.4 54.4 28 -5.5 22.2
14:00 1005 29.68 835 24.66 13.2 55.7 31 -3.3 26
14:05 1005 29.68 835 24.66 12.8 55 30 -4.2 24.4
14:10 1005 29.68 834 24.63 12.3 54.1 30 -4.5 23.9
14:15 1005 29.68 834 24.63 13 55.4 30 -4.2 24.4
14:20 1005 29.68 834 24.63 12.8 55.1 27 -5.7 21.7
14:25 1005 29.68 834 24.63 12.2 54 29 -5.2 22.6
14:30 1005 29.68 834 24.63 12 53.5 29 -5.7 21.7
14:35 1005 29.68 834 24.63 12.6 54.6 26 -6.3 20.6
14:40 1005 29.68 834 24.63 12.7 54.8 25 -6.8 19.7
14:45 1005 29.68 834 24.63 13.5 56.2 32 -3 26.6
14:50 1005 29.68 834 24.63 12.9 55.1 36 -1.7 29
14:55 1005 29.68 834 24.63 11.3 52.4 41 -1.5 29.3
15:00 1005 29.68 834 24.63 11.3 52.4 43 -0.8 30.5
15:05 1005 29.68 834 24.63 10.9 51.5 44 -0.8 30.6
15:10 1005 29.68 834 24.63 10.3 50.5 45 -1.1 30.1
15:15 1005 29.68 834 24.63 10.2 50.3 45 -1.3 29.7
15:20 1005 29.68 834 24.63 10.2 50.4 47 -0.6 31
15:25 1005 29.68 834 24.63 10 50 50 0.2 32.4
15:30 1004 29.65 834 24.63 9.7 49.4 50 -0.3 31.5
15:35 1004 29.65 834 24.63 9.5 49.1 54 0.6 33.1
15:40 1004 29.65 834 24.63 9.4 48.8 51 -0.2 31.6
15:45 1004 29.65 834 24.63 9.3 48.7 52 -0.2 31.7
15:50 1004 29.65 834 24.63 9 48.1 54 0.1 32.2
15:55 1005 29.68 834 24.63 8.8 47.8 53 -0.2 31.6
16:00 1005 29.68 834 24.63 8.9 48 54 -0 32
16:05 1005 29.68 834 24.63 9.2 48.6 53 0.2 32.3
16:10 1005 29.68 834 24.63 9.4 49 53 0.3 32.6
16:15 1005 29.68 834 24.63 8.9 48.1 56 0.6 33
16:20 1005 29.68 834 24.63 8.8 47.8 56 0.4 32.7
16:25 1005 29.68 834 24.63 8.9 48 56 0.7 33.3
16:30 1005 29.68 834 24.63 8.9 47.9 53 -0.2 31.7
16:35 1005 29.68 834 24.63 8.6 47.5 57 0.5 32.9
16:40 1005 29.68 834 24.63 8 46.4 58 0.3 32.5
16:45 1005 29.68 834 24.63 7.6 45.6 61 0.5 32.9
16:50 1005 29.68 834 24.63 7.3 45.2 61 0.2 32.4
16:55 1005 29.68 834 24.63 7.3 45.1 62 0.6 33.1
17:00 1005 29.68 834 24.63 7.2 45 63 0.6 33
17:05 1005 29.68 835 24.66 7.3 45.1 63 0.7 33.2
17:10 1005 29.68 835 24.66 7.1 44.8 64 0.8 33.4
17:15 1006 29.71 835 24.66 6.7 44 65 0.5 32.9
17:20 1005 29.68 835 24.66 6.2 43.1 67 0.6 33.1
17:25 1005 29.68 835 24.66 6.4 43.5 68 0.9 33.6
17:30 1005 29.68 835 24.66 6.3 43.4 67 0.7 33.3
17:35 1006 29.71 835 24.66 6.7 44 66 0.8 33.4
17:40 1006 29.71 835 24.66 7 44.6 64 0.7 33.2
17:45 1006 29.71 835 24.66 7.2 44.9 64 0.8 33.5
17:50 1006 29.71 835 24.66 7.3 45.1 63 0.7 33.2
17:55 1006 29.71 835 24.66 7.5 45.5 60 0.3 32.5
18:00 1006 29.71 835 24.66 7.6 45.8 61 0.5 33
18:05 1006 29.71 835 24.66 7.6 45.7 63 0.9 33.7
18:10 1006 29.71 835 24.66 7.5 45.5 63 0.8 33.5
18:15 1006 29.71 835 24.66 7.3 45.1 63 0.6 33.1
18:20 1006 29.71 835 24.66 7.4 45.3 63 0.8 33.4
18:25 1006 29.71 835 24.66 7.4 45.3 64 1 33.7
18:30 1006 29.71 835 24.66 7.4 45.4 64 1.1 33.9
18:35 1006 29.71 835 24.66 7.3 45.1 65 1.2 34.2
18:40 1006 29.71 835 24.66 7.3 45.1 65 1.2 34.1
18:45 1006 29.71 835 24.66 7.2 44.9 66 1.2 34.1
18:50 1006 29.71 835 24.66 7.2 45 67 1.5 34.6
18:55 1006 29.71 835 24.66 7.1 44.9 66 1.3 34.3
19:00 1006 29.71 835 24.66 7 44.6 64 0.8 33.4
19:05 1006 29.71 836 24.69 6.9 44.5 65 0.8 33.4
19:10 1006 29.71 836 24.69 6.8 44.3 66 0.9 33.7
19:15 1006 29.71 836 24.69 6.8 44.3 66 0.8 33.5
19:20 1006 29.71 836 24.69 6.8 44.2 65 0.7 33.3
19:25 1006 29.71 836 24.69 6.7 44 66 0.9 33.6
19:30 1006 29.71 836 24.69 6.5 43.7 70 1.5 34.7
19:35 1006 29.71 836 24.69 6.1 43 72 1.4 34.5
19:40 1006 29.71 836 24.69 6.2 43.1 70 1.1 34
19:45 1006 29.71 836 24.69 6.3 43.3 71 1.3 34.4
19:50 1006 29.71 836 24.69 6.3 43.3 70 1.2 34.1
19:55 1007 29.74 836 24.69 6.2 43.2 70 1.2 34.1
20:00 1007 29.74 836 24.69 6.3 43.3 70 1.3 34.3
20:05 1007 29.74 836 24.69 6.3 43.3 70 1.2 34.2
20:10 1007 29.74 836 24.69 6.2 43.2 70 1.2 34.2
20:15 1007 29.74 836 24.69 6.1 43 70 1.1 34
20:20 1007 29.74 836 24.69 6.1 42.9 70 1.1 33.9
20:25 1007 29.74 836 24.69 5.9 42.6 73 1.4 34.5
20:30 1007 29.74 836 24.69 5.7 42.2 72 1.1 33.9
20:35 1007 29.74 836 24.69 5.7 42.3 72 1 33.7
20:40 1007 29.74 836 24.69 5.7 42.3 72 1.1 34.1
20:45 1007 29.74 836 24.69 5.8 42.4 72 1.2 34.1
20:50 1007 29.74 836 24.69 5.8 42.5 73 1.3 34.4
20:55 1007 29.74 837 24.72 5.8 42.4 73 1.3 34.4
21:00 1008 29.77 837 24.72 5.7 42.3 72 1.1 34
21:05 1008 29.77 837 24.72 3.4 38.2 82 0.7 33.2
21:10 1008 29.77 837 24.72 1.3 34.3 89 -0.4 31.2
21:15 1008 29.77 837 24.72 0.7 33.3 91 -0.7 30.8
21:20 1008 29.77 837 24.72 0.5 33 92 -0.6 30.8
21:25 1008 29.77 837 24.72 0.5 33 92 -0.6 30.9
21:30 1008 29.77 837 24.72 0.6 33 92 -0.5 31.1
21:35 1009 29.8 838 24.75 0.7 33.2 92 -0.5 31.2
21:40 1009 29.8 838 24.75 0.7 33.3 92 -0.5 31.2
21:45 1009 29.8 838 24.75 0.8 33.5 92 -0.3 31.4
21:50 1009 29.8 838 24.75 0.9 33.6 91 -0.4 31.4
21:55 1009 29.8 838 24.75 0.9 33.6 91 -0.3 31.4
22:00 1009 29.8 838 24.75 1 33.8 91 -0.3 31.5
22:05 1009 29.8 838 24.75 1.1 34 91 -0.2 31.6
22:10 1009 29.8 838 24.75 1.2 34.2 91 -0.1 31.7
22:15 1009 29.8 838 24.75 1.3 34.3 91 -0.1 31.8
22:20 1009 29.8 838 24.75 1.3 34.3 90 -0.2 31.7
22:25 1009 29.8 838 24.75 1.2 34.2 90 -0.3 31.5
22:30 1009 29.8 838 24.75 1.2 34.1 90 -0.3 31.4
22:35 1009 29.8 839 24.78 1.3 34.3 90 -0.2 31.6
22:40 1010 29.83 839 24.78 1.4 34.4 90 -0.1 31.8
22:45 1010 29.83 839 24.78 1.4 34.5 90 -0.1 31.8
22:50 1010 29.83 839 24.78 1.4 34.5 90 -0.1 31.8
22:55 1010 29.83 839 24.78 1.4 34.5 89 -0.2 31.6
23:00 1010 29.83 839 24.78 1.4 34.5 89 -0.2 31.6
23:05 1010 29.83 839 24.78 1.2 34.2 90 -0.3 31.5
23:10 1010 29.83 839 24.78 1.2 34.1 90 -0.3 31.5
23:15 1010 29.83 839 24.78 1.1 34 90 -0.4 31.4
23:20 1010 29.83 839 24.78 1 33.9 90 -0.4 31.2
23:25 1010 29.83 839 24.78 1 33.8 90 -0.5 31.1
23:30 1010 29.83 839 24.78 1 33.8 90 -0.5 31.2
23:35 1010 29.83 839 24.78 1 33.8 90 -0.4 31.2
23:40 1010 29.83 839 24.78 1.1 34 89 -0.5 31.1
23:45 1010 29.83 839 24.78 1.2 34.1 88 -0.5 31.1
23:50 1010 29.83 839 24.78 1.3 34.3 88 -0.5 31
23:55 1010 29.83 839 24.78 1.3 34.3 87 -0.6 30.9
24:00 1010 29.83 839 24.78 1.4 34.5 85 -0.9 30.4